Amendola, Amendola Airport (LIBA)

NameAmendola Airport
CityAmendola
CountryItaly
ICAOLIBA
IATA
Altitude56 m
CoordinatesGoogle Map
Live Air TrafficLiveATC.net
METARLIBA 222255Z VRB02KT CAVOK 10/10 Q1014 RMK FEW FEW200 VIS MIN 9999 WIND THR11 VRB02KT WIND THR29 /////KT BLU
2019-11-22 22:55:00 Wind: North (0°) 1.03 m/s - Visibility: > 10000 m - Weather: CAVOK - Temperature: 10 °C - Dew point: 10 °C - Humidity: 100% - Pressure: 1014 hPa

Sorry, no flights used the airport in this database.